createdAt,value
2022-08-18T00:03:27.475Z,26.25
2022-08-18T00:07:34.808Z,29.90
2022-08-18T00:11:42.813Z,28.85
2022-08-18T00:15:49.026Z,29.02
2022-08-18T00:19:52.084Z,35.97
2022-08-18T00:23:54.635Z,29.17
2022-08-18T00:27:56.885Z,29.80
2022-08-18T00:31:59.074Z,26.33
2022-08-18T00:36:01.435Z,29.92
2022-08-18T00:40:05.200Z,24.63
2022-08-18T00:44:09.001Z,25.55
2022-08-18T00:48:12.800Z,32.35
2022-08-18T00:52:16.899Z,30.60
2022-08-18T00:56:27.889Z,30.40
2022-08-18T01:00:30.248Z,29.08
2022-08-18T01:04:47.396Z,30.63
2022-08-18T01:08:51.367Z,26.20
2022-08-18T01:12:58.707Z,29.17
2022-08-18T01:17:19.864Z,29.23
2022-08-18T01:21:48.134Z,27.55
2022-08-18T01:26:02.828Z,25.40
2022-08-18T01:30:10.543Z,30.25
2022-08-18T01:34:13.392Z,33.83
2022-08-18T01:38:19.530Z,29.80
2022-08-18T01:42:21.872Z,23.23
2022-08-18T01:46:24.571Z,25.70
2022-08-18T01:50:27.430Z,24.70
2022-08-18T01:54:30.421Z,32.47
2022-08-18T01:58:34.701Z,31.17
2022-08-18T02:02:37.909Z,27.75
2022-08-18T02:06:40.807Z,33.13
2022-08-18T02:10:50.128Z,31.30
2022-08-18T02:14:53.368Z,33.30
2022-08-18T02:18:55.479Z,35.30
2022-08-18T02:22:58.861Z,25.17
2022-08-18T02:27:01.044Z,31.98
2022-08-18T02:31:16.864Z,28.98
2022-08-18T02:35:18.944Z,24.83
2022-08-18T02:39:21.593Z,27.58
2022-08-18T02:43:24.229Z,29.35
2022-08-18T02:47:30.242Z,32.58
2022-08-18T02:51:35.700Z,32.15
2022-08-18T02:55:38.145Z,30.00
2022-08-18T02:59:41.518Z,30.20
2022-08-18T03:03:44.031Z,25.50
2022-08-18T03:07:47.203Z,29.55
2022-08-18T03:11:49.608Z,38.47
2022-08-18T03:15:56.527Z,25.10
2022-08-18T03:19:59.328Z,26.98
2022-08-18T03:24:09.185Z,25.02
2022-08-18T03:28:15.063Z,26.17
2022-08-18T03:32:17.652Z,29.23
2022-08-18T03:36:27.593Z,25.55
2022-08-18T03:40:29.703Z,25.95
2022-08-18T03:44:37.755Z,27.30
2022-08-18T03:48:42.403Z,26.58
2022-08-18T03:52:48.862Z,26.27
2022-08-18T03:56:50.886Z,24.67
2022-08-18T04:00:53.308Z,25.42
2022-08-18T04:04:55.632Z,27.63
2022-08-18T04:09:00.666Z,31.10
2022-08-18T04:13:05.782Z,33.78
2022-08-18T04:17:09.812Z,31.08
2022-08-18T04:21:16.207Z,32.30
2022-08-18T04:25:18.567Z,33.80
2022-08-18T04:29:21.737Z,34.42
2022-08-18T04:33:24.012Z,37.65
2022-08-18T04:37:26.077Z,41.65
2022-08-18T04:41:29.654Z,43.50
2022-08-18T04:45:32.006Z,43.72
2022-08-18T04:49:34.259Z,41.08
2022-08-18T04:53:46.987Z,40.58
2022-08-18T04:57:49.248Z,40.30
2022-08-18T05:01:51.322Z,36.95
2022-08-18T05:05:55.616Z,31.60
2022-08-18T05:09:57.911Z,29.27
2022-08-18T05:14:01.787Z,33.08
2022-08-18T05:18:05.446Z,28.52
2022-08-18T05:22:08.886Z,34.05
2022-08-18T05:26:14.851Z,34.10
2022-08-18T05:30:17.199Z,25.60
2022-08-18T05:34:21.891Z,36.90
2022-08-18T05:38:53.270Z,28.48
2022-08-18T05:42:59.552Z,42.28
2022-08-18T05:47:13.635Z,39.13
2022-08-18T05:51:29.099Z,37.42
2022-08-18T05:55:52.548Z,25.60
2022-08-18T05:59:55.601Z,27.23
2022-08-18T06:04:15.407Z,32.33
2022-08-18T06:08:21.618Z,25.38
2022-08-18T06:12:26.700Z,31.75
2022-08-18T06:16:47.566Z,28.08
2022-08-18T06:21:11.799Z,23.27
2022-08-18T06:25:58.493Z,26.25
2022-08-18T06:30:16.164Z,27.25
2022-08-18T06:34:18.228Z,22.52
2022-08-18T06:38:45.508Z,21.38
2022-08-18T06:42:48.251Z,20.92
2022-08-18T06:47:05.317Z,18.55
2022-08-18T06:51:10.682Z,19.08
2022-08-18T06:55:18.174Z,21.65
2022-08-18T06:59:27.496Z,17.02
2022-08-18T07:03:35.681Z,16.63
2022-08-18T07:07:41.000Z,17.52
2022-08-18T07:12:03.188Z,13.70
2022-08-18T07:16:54.458Z,16.40
2022-08-18T07:20:58.615Z,13.73
2022-08-18T07:25:05.459Z,13.13
2022-08-18T07:29:15.808Z,10.57
2022-08-18T07:33:24.206Z,17.30
2022-08-18T07:41:44.248Z,15.88
2022-08-18T07:45:47.809Z,18.50
2022-08-18T07:50:15.620Z,12.93
2022-08-18T07:54:49.040Z,18.90
2022-08-18T07:58:59.849Z,20.73
2022-08-18T08:03:23.488Z,17.02
2022-08-18T08:07:30.886Z,15.40
2022-08-18T08:11:33.828Z,16.80
2022-08-18T08:16:00.192Z,15.38
2022-08-18T08:20:37.770Z,14.70
2022-08-18T08:25:17.653Z,17.58
2022-08-18T08:33:55.916Z,12.43
2022-08-18T08:38:39.423Z,17.67
2022-08-18T08:42:42.003Z,11.35
2022-08-18T08:46:51.076Z,16.92
2022-08-18T08:50:59.549Z,10.07
2022-08-18T08:55:11.297Z,10.52
2022-08-18T08:59:21.846Z,12.40
2022-08-18T09:03:45.638Z,11.55
2022-08-18T09:08:05.717Z,11.23
2022-08-18T09:12:26.139Z,22.25
2022-08-18T09:16:53.293Z,10.05
2022-08-18T09:21:17.557Z,10.52
2022-08-18T09:25:33.445Z,23.65
2022-08-18T09:29:44.255Z,10.25
2022-08-18T09:38:48.878Z,12.60
2022-08-18T09:42:58.139Z,9.55
2022-08-18T09:47:01.931Z,13.65
2022-08-18T09:51:20.909Z,16.10
2022-08-18T09:55:26.168Z,17.08
2022-08-18T09:59:34.960Z,10.98
2022-08-18T10:03:37.729Z,21.08
2022-08-18T10:07:44.245Z,13.18
2022-08-18T10:11:59.491Z,10.75
2022-08-18T10:16:31.914Z,9.53
2022-08-18T10:21:00.120Z,8.07
2022-08-18T10:25:22.145Z,11.77
2022-08-18T10:29:25.924Z,15.77
2022-08-18T10:33:56.546Z,12.48
2022-08-18T10:38:01.976Z,12.63
2022-08-18T10:42:15.572Z,15.80
2022-08-18T10:46:25.121Z,9.15
2022-08-18T10:51:01.282Z,14.40
2022-08-18T10:55:16.321Z,11.48
2022-08-18T11:09:05.270Z,14.80
2022-08-18T11:14:00.431Z,13.70
2022-08-18T11:18:30.165Z,15.57
2022-08-18T11:22:35.805Z,17.45
2022-08-18T11:26:42.714Z,14.85
2022-08-18T11:30:50.510Z,17.02
2022-08-18T11:35:00.015Z,14.02
2022-08-18T11:39:02.242Z,14.85
2022-08-18T11:43:10.130Z,10.52
2022-08-18T11:47:17.332Z,8.27
2022-08-18T11:51:25.356Z,12.50
2022-08-18T11:55:34.634Z,12.63
2022-08-18T11:59:54.548Z,10.70
2022-08-18T12:04:13.812Z,11.20
2022-08-18T12:08:56.145Z,8.05
2022-08-18T12:12:54.293Z,13.07
2022-08-18T12:16:58.100Z,8.77
2022-08-18T12:21:03.698Z,9.77
2022-08-18T12:25:12.176Z,9.00
2022-08-18T12:29:16.347Z,11.05
2022-08-18T12:33:18.612Z,9.85
2022-08-18T12:41:51.888Z,10.30
2022-08-18T12:45:54.539Z,11.63
2022-08-18T12:49:56.539Z,10.95
2022-08-18T12:58:21.011Z,11.00
2022-08-18T13:02:25.642Z,9.38
2022-08-18T13:06:28.358Z,7.45
2022-08-18T13:10:43.226Z,12.05
2022-08-18T13:14:50.983Z,11.48
2022-08-18T13:18:54.596Z,12.50
2022-08-18T13:22:56.671Z,12.90
2022-08-18T13:26:59.086Z,12.25
2022-08-18T13:31:02.393Z,10.02
2022-08-18T13:35:09.196Z,11.80
2022-08-18T13:39:19.739Z,6.90
2022-08-18T13:43:32.407Z,9.00
2022-08-18T13:47:38.029Z,9.30
2022-08-18T13:51:42.713Z,10.18
2022-08-18T13:55:46.516Z,11.52
2022-08-18T13:59:49.223Z,10.00
2022-08-18T14:03:51.378Z,10.05
2022-08-18T14:07:54.747Z,10.55
2022-08-18T14:11:59.926Z,11.32
2022-08-18T14:16:02.923Z,8.77
2022-08-18T14:20:27.255Z,7.72
2022-08-18T14:24:49.793Z,9.25
2022-08-18T14:28:52.620Z,11.48
2022-08-18T14:32:55.394Z,9.38
2022-08-18T14:37:00.524Z,9.00
2022-08-18T14:41:07.124Z,9.45
2022-08-18T14:45:26.366Z,9.10
2022-08-18T14:49:34.823Z,8.55
2022-08-18T14:53:45.080Z,12.82
2022-08-18T14:57:53.918Z,12.55
2022-08-18T15:01:57.903Z,9.98
2022-08-18T15:06:04.790Z,6.82
2022-08-18T15:10:14.952Z,8.20
2022-08-18T15:14:19.791Z,13.20
2022-08-18T15:18:24.510Z,10.55
2022-08-18T15:22:47.844Z,8.23
2022-08-18T15:26:58.246Z,8.18
2022-08-18T15:35:29.272Z,10.23
2022-08-18T15:39:33.274Z,11.52
2022-08-18T15:43:46.105Z,10.60
2022-08-18T15:47:48.990Z,11.85
2022-08-18T15:51:52.667Z,7.93
2022-08-18T15:55:55.259Z,7.45
2022-08-18T16:00:01.215Z,10.13
2022-08-18T16:12:14.558Z,7.00
2022-08-18T16:16:29.041Z,8.98
2022-08-18T16:20:39.430Z,12.15
2022-08-18T16:24:42.485Z,7.00
2022-08-18T16:28:51.148Z,7.60
2022-08-18T16:32:54.092Z,8.30
2022-08-18T16:36:57.081Z,7.68
2022-08-18T16:41:09.503Z,12.60
2022-08-18T16:45:14.736Z,12.15
2022-08-18T16:49:17.661Z,12.77
2022-08-18T16:53:19.944Z,12.73
2022-08-18T16:57:53.381Z,10.88
2022-08-18T17:02:16.311Z,12.18
2022-08-18T17:06:20.336Z,26.80
2022-08-18T17:10:22.861Z,14.10
2022-08-18T17:14:29.995Z,14.50
2022-08-18T17:18:33.303Z,9.65
2022-08-18T17:22:35.415Z,12.80
2022-08-18T17:27:04.085Z,9.90
2022-08-18T17:31:14.284Z,11.10
2022-08-18T17:35:26.901Z,10.40
2022-08-18T17:39:41.960Z,15.35
2022-08-18T17:47:53.593Z,12.70
2022-08-18T17:51:56.668Z,13.60
2022-08-18T17:56:01.492Z,12.77
2022-08-18T18:00:12.504Z,15.02
2022-08-18T18:04:14.832Z,17.58
2022-08-18T18:08:18.450Z,18.67
2022-08-18T18:12:23.836Z,15.38
2022-08-18T18:16:37.347Z,15.25
2022-08-18T18:20:42.557Z,17.50
2022-08-18T18:24:53.166Z,16.08
2022-08-18T18:29:38.173Z,18.73
2022-08-18T18:33:42.457Z,17.02
2022-08-18T18:38:24.040Z,17.38
2022-08-18T18:42:32.443Z,17.73
2022-08-18T18:46:41.490Z,24.58
2022-08-18T18:51:19.480Z,18.73
2022-08-18T18:55:47.220Z,13.27
2022-08-18T19:00:19.709Z,15.63
2022-08-18T19:04:32.084Z,16.60
2022-08-18T19:08:41.710Z,14.88
2022-08-18T19:12:53.208Z,17.50
2022-08-18T19:17:16.094Z,20.23
2022-08-18T19:21:38.686Z,25.70
2022-08-18T19:25:50.442Z,15.50
2022-08-18T19:29:57.811Z,17.88
2022-08-18T19:34:31.899Z,19.33
2022-08-18T19:39:00.742Z,15.98
2022-08-18T19:43:47.467Z,16.50
2022-08-18T19:47:57.233Z,18.38
2022-08-18T19:52:45.701Z,19.42
2022-08-18T19:57:14.078Z,17.38
2022-08-18T20:01:21.443Z,15.18
2022-08-18T20:05:48.568Z,20.00
2022-08-18T20:10:08.394Z,19.15
2022-08-18T20:14:19.019Z,21.40
2022-08-18T20:18:29.797Z,19.13
2022-08-18T20:22:39.765Z,19.48
2022-08-18T20:26:49.341Z,19.20
2022-08-18T20:31:07.372Z,19.67
2022-08-18T20:35:18.157Z,20.57
2022-08-18T20:39:44.637Z,17.88
2022-08-18T20:43:50.412Z,14.10
2022-08-18T20:48:13.053Z,17.33
2022-08-18T20:52:35.922Z,16.33
2022-08-18T20:56:44.402Z,16.05
2022-08-18T21:01:01.790Z,18.05
2022-08-18T21:05:05.576Z,13.48
2022-08-18T21:09:08.696Z,15.30
2022-08-18T21:13:10.800Z,13.25
2022-08-18T21:17:14.383Z,13.45
2022-08-18T21:21:26.958Z,17.00
2022-08-18T21:25:29.765Z,14.00
2022-08-18T21:29:47.200Z,14.32
2022-08-18T21:33:59.106Z,14.18
2022-08-18T21:38:01.113Z,15.15
2022-08-18T21:42:03.649Z,14.55
2022-08-18T21:46:06.403Z,16.58
2022-08-18T21:50:15.545Z,18.63
2022-08-18T21:54:21.334Z,16.83
2022-08-18T21:58:40.715Z,15.43
2022-08-18T22:02:43.573Z,12.75
2022-08-18T22:06:52.727Z,17.52
2022-08-18T22:11:36.420Z,14.38
2022-08-18T22:15:50.724Z,12.75
2022-08-18T22:19:53.675Z,12.75
2022-08-18T22:24:14.440Z,14.20
2022-08-18T22:28:24.454Z,16.65
2022-08-18T22:32:35.617Z,15.98
2022-08-18T22:36:41.582Z,13.77
2022-08-18T22:40:43.814Z,15.25
2022-08-18T22:44:45.990Z,11.23
2022-08-18T22:48:48.220Z,12.98
2022-08-18T22:52:50.896Z,12.85
2022-08-18T22:56:54.102Z,12.38
2022-08-18T23:01:05.273Z,16.00
2022-08-18T23:05:08.364Z,15.38
2022-08-18T23:09:10.571Z,13.77
2022-08-18T23:13:13.014Z,17.45
2022-08-18T23:17:15.891Z,14.07
2022-08-18T23:21:34.903Z,22.30
2022-08-18T23:25:37.794Z,15.35
2022-08-18T23:29:41.357Z,19.33
2022-08-18T23:33:43.582Z,19.30
2022-08-18T23:37:46.849Z,19.85
2022-08-18T23:41:49.678Z,20.75
2022-08-18T23:45:52.319Z,17.05
2022-08-18T23:49:54.489Z,18.77
2022-08-18T23:54:03.084Z,18.33
2022-08-18T23:58:05.697Z,14.85
